Main page
METAR-TAF:

METAR-TAF

Airports :

Dushanbe International Airport

Dushanbe, Tajikistan

latitude: 38-33N, longitude: 068-47E, elevation: 803 m

Current weather observation

The report was made 44 minutes ago, at 14:30 UTC
Wind 4 kt from the North/Northwest
Temperature 33°C
Humidity 21%
Pressure 1004 hPa
Visibility 10 km or more
Few clouds at a height of 6600 ft

METAR: UTDD 071430Z 34002MPS 9999 FEW066 33/08 Q1004 R09/D NOSIG RMK QFE685/0914

Time: 20:14 (15:14 UTC)

Forecast

The report was made 3 hours and 14 minutes ago, at 12:00 UTC
Forecast valid from 07 at 13 UTC to 08 at 01 UTC
Wind 4 kt from variable directions
Visibility: 6000 m
Few clouds at a height of 6600 ft, Cumulonimbus.
Scattered clouds at a height of 10000 ft
Temporary
from 07 at 13 UTC to 07 at 16 UTC
Wind 10 kt from the West

TAF: UTDD 071200Z 0713/0801 VRB02MPS 6000 FEW066CB SCT100 TEMPO 0713/0716 26005MPS

Weather observations and forecasts of more than 4000 airports (METAR and TAF reports).

The available stations are represented by yellow and red dots on the map.

Hover mouse over dot to see the name of the station.

Then click to see weather observations and forecasts.

To change the map : click on the green buttons with a black cross to zoom in, on the green button with a dash to zoom out, or on the green arrows for adjacent maps.


METAR-TAF: